Terminal Aerodrome Forecast
Issued by NWS

Home | Current Version | Previous Version | Text Only | Print | Product List | Glossary On
Versions: 1 2 3 4 5 6 7 8 9 10 11 12 13 14 15 16 17 18 19 20 21 22 23 24
000
FTUS45 KGJT 231325 AAB
TAFEGE
TAF AMD
KEGE 231325Z 2313/2412 07005KT 6SM -SN SCT025 OVC045
      TEMPO 2313/2317 3SM -SN BR OVC025
     FM231800 22015G23KT 3SM -SNRA OVC020
     FM240000 23016G24KT 1SM -SN BLSN OVC020
     FM240300 24007KT 3SM -SN OVC020=

USA.gov is the U.S. government's official web portal to all federal, state and local government web resources and services.